createdAt,value
2022-11-03T00:01:34.789Z,75.69
2022-11-03T00:04:01.296Z,76.10
2022-11-03T00:06:27.797Z,76.16
2022-11-03T00:08:58.246Z,76.21
2022-11-03T00:11:24.680Z,76.10
2022-11-03T00:13:51.136Z,76.05
2022-11-03T00:16:17.630Z,75.80
2022-11-03T00:18:44.143Z,75.96
2022-11-03T00:21:13.281Z,75.80
2022-11-03T00:23:42.605Z,75.81
2022-11-03T00:26:18.192Z,76.00
2022-11-03T00:28:46.776Z,75.88
2022-11-03T00:31:15.499Z,75.87
2022-11-03T00:33:43.737Z,75.83
2022-11-03T00:36:13.403Z,75.52
2022-11-03T00:38:40.219Z,75.50
2022-11-03T00:41:07.004Z,75.32
2022-11-03T00:43:35.192Z,75.54
2022-11-03T00:46:01.843Z,75.54
2022-11-03T00:48:31.255Z,75.19
2022-11-03T00:51:06.842Z,75.26
2022-11-03T00:53:35.587Z,75.13
2022-11-03T00:56:02.514Z,75.13
2022-11-03T00:58:28.949Z,75.35
2022-11-03T01:00:59.741Z,75.21
2022-11-03T01:03:26.576Z,75.35
2022-11-03T01:06:11.532Z,75.21
2022-11-03T01:08:38.172Z,75.59
2022-11-03T01:11:31.790Z,75.82
2022-11-03T01:13:58.479Z,76.02
2022-11-03T01:16:25.181Z,75.92
2022-11-03T01:18:51.994Z,76.26
2022-11-03T01:21:19.165Z,76.32
2022-11-03T01:23:45.591Z,76.44
2022-11-03T01:26:13.481Z,76.61
2022-11-03T01:28:43.960Z,76.72
2022-11-03T01:31:14.916Z,76.85
2022-11-03T01:33:41.566Z,76.82
2022-11-03T01:36:09.745Z,76.93
2022-11-03T01:38:37.077Z,76.93
2022-11-03T01:41:05.583Z,76.98
2022-11-03T01:43:32.469Z,77.07
2022-11-03T01:46:23.401Z,77.20
2022-11-03T01:49:22.262Z,77.28
2022-11-03T01:51:54.724Z,77.33
2022-11-03T01:54:26.250Z,77.38
2022-11-03T01:56:53.291Z,77.45
2022-11-03T01:59:22.455Z,77.62
2022-11-03T02:01:49.148Z,77.37
2022-11-03T02:04:33.296Z,77.76
2022-11-03T02:07:11.519Z,77.73
2022-11-03T02:09:37.980Z,77.83
2022-11-03T02:12:08.373Z,77.65
2022-11-03T02:14:43.137Z,77.89
2022-11-03T02:17:12.548Z,77.67
2022-11-03T02:19:47.476Z,77.83
2022-11-03T02:22:32.669Z,77.92
2022-11-03T02:25:17.756Z,78.31
2022-11-03T02:27:44.733Z,78.40
2022-11-03T02:30:11.714Z,78.28
2022-11-03T02:33:04.349Z,78.34
2022-11-03T02:35:42.634Z,78.53
2022-11-03T02:38:15.068Z,78.57
2022-11-03T02:40:51.828Z,78.66
2022-11-03T02:43:19.694Z,78.92
2022-11-03T02:45:48.205Z,78.77
2022-11-03T02:48:17.831Z,78.91
2022-11-03T02:50:45.052Z,78.98
2022-11-03T02:53:12.828Z,79.10
2022-11-03T02:55:55.756Z,79.16
2022-11-03T02:58:39.451Z,79.00
2022-11-03T03:01:15.221Z,79.18
2022-11-03T03:03:52.329Z,79.41
2022-11-03T03:06:25.231Z,79.27
2022-11-03T03:09:06.882Z,79.16
2022-11-03T03:11:39.628Z,79.35
2022-11-03T03:14:09.186Z,79.44
2022-11-03T03:16:51.160Z,79.22
2022-11-03T03:19:47.904Z,79.29
2022-11-03T03:22:41.527Z,79.34
2022-11-03T03:25:20.884Z,79.09
2022-11-03T03:27:51.889Z,79.16
2022-11-03T03:30:18.811Z,79.47
2022-11-03T03:32:49.213Z,79.31
2022-11-03T03:35:26.657Z,79.55
2022-11-03T03:37:59.200Z,79.68
2022-11-03T03:40:36.027Z,79.42
2022-11-03T03:43:06.543Z,79.37
2022-11-03T03:45:34.547Z,79.21
2022-11-03T03:48:01.358Z,79.35
2022-11-03T03:50:31.679Z,79.27
2022-11-03T03:53:00.414Z,79.28
2022-11-03T03:55:35.561Z,79.42
2022-11-03T03:58:04.132Z,79.51
2022-11-03T04:00:30.894Z,79.22
2022-11-03T04:02:59.776Z,79.25
2022-11-03T04:05:26.881Z,79.66
2022-11-03T04:07:53.299Z,79.60
2022-11-03T04:10:22.237Z,79.89
2022-11-03T04:13:08.137Z,79.98
2022-11-03T04:16:03.610Z,79.92
2022-11-03T04:18:48.302Z,79.88
2022-11-03T04:21:32.980Z,79.96
2022-11-03T04:24:00.450Z,79.89
2022-11-03T04:26:28.581Z,79.90
2022-11-03T04:28:55.883Z,80.04
2022-11-03T04:31:22.554Z,80.02
2022-11-03T04:33:49.291Z,80.06
2022-11-03T04:36:21.310Z,80.15
2022-11-03T04:38:48.764Z,80.10
2022-11-03T04:41:28.870Z,80.39
2022-11-03T04:43:56.923Z,80.33
2022-11-03T04:46:28.738Z,80.52
2022-11-03T04:48:59.103Z,80.39
2022-11-03T04:51:29.874Z,80.38
2022-11-03T04:54:04.336Z,80.59
2022-11-03T04:56:30.847Z,80.45
2022-11-03T04:58:58.043Z,80.58
2022-11-03T05:01:25.158Z,80.77
2022-11-03T05:03:54.974Z,80.74
2022-11-03T05:06:23.733Z,80.98
2022-11-03T05:08:55.015Z,81.01
2022-11-03T05:11:32.316Z,81.06
2022-11-03T05:14:23.311Z,81.15
2022-11-03T05:16:51.680Z,81.28
2022-11-03T05:19:27.151Z,81.42
2022-11-03T05:21:55.564Z,81.56
2022-11-03T05:24:25.757Z,81.86
2022-11-03T05:26:55.665Z,81.79
2022-11-03T05:29:26.546Z,81.79
2022-11-03T05:31:55.931Z,82.21
2022-11-03T05:34:42.428Z,82.19
2022-11-03T05:37:08.815Z,82.09
2022-11-03T05:39:37.927Z,82.08
2022-11-03T05:42:23.414Z,82.24
2022-11-03T05:44:51.666Z,82.28
2022-11-03T05:47:24.240Z,82.46
2022-11-03T05:49:54.681Z,82.36
2022-11-03T05:52:24.184Z,82.59
2022-11-03T05:54:52.230Z,82.73
2022-11-03T05:57:19.456Z,82.74
2022-11-03T05:59:49.483Z,82.79
2022-11-03T06:02:36.120Z,82.76
2022-11-03T06:05:11.440Z,82.82
2022-11-03T06:07:38.190Z,83.02
2022-11-03T06:10:26.003Z,82.82
2022-11-03T06:13:21.615Z,82.81
2022-11-03T06:15:53.235Z,83.06
2022-11-03T06:18:22.817Z,83.17
2022-11-03T06:20:52.753Z,82.86
2022-11-03T06:23:20.806Z,82.89
2022-11-03T06:25:48.849Z,82.95
2022-11-03T06:28:19.900Z,83.17
2022-11-03T06:30:47.598Z,83.23
2022-11-03T06:33:35.078Z,83.30
2022-11-03T06:36:18.303Z,83.33
2022-11-03T06:38:52.708Z,83.39
2022-11-03T06:41:27.899Z,83.21
2022-11-03T06:43:54.594Z,83.47
2022-11-03T06:46:26.065Z,83.63
2022-11-03T06:48:55.766Z,83.70
2022-11-03T06:51:25.923Z,83.71
2022-11-03T06:53:53.966Z,83.71
2022-11-03T06:56:23.128Z,83.76
2022-11-03T06:58:52.984Z,83.93
2022-11-03T07:01:39.731Z,83.85
2022-11-03T07:04:16.337Z,83.80
2022-11-03T07:06:43.476Z,84.12
2022-11-03T07:09:21.320Z,84.05
2022-11-03T07:11:50.009Z,84.33
2022-11-03T07:14:22.793Z,84.33
2022-11-03T07:16:56.067Z,84.36
2022-11-03T07:19:30.765Z,84.35
2022-11-03T07:22:09.448Z,84.41
2022-11-03T07:24:45.753Z,84.51
2022-11-03T07:27:20.835Z,84.55
2022-11-03T07:29:49.590Z,84.39
2022-11-03T07:32:19.979Z,84.58
2022-11-03T07:34:47.848Z,84.45
2022-11-03T07:37:19.741Z,84.43
2022-11-03T07:39:46.962Z,84.33
2022-11-03T07:42:25.741Z,84.50
2022-11-03T07:44:53.152Z,84.29
2022-11-03T07:47:21.999Z,84.09
2022-11-03T07:49:48.798Z,84.07
2022-11-03T07:52:19.914Z,84.13
2022-11-03T07:54:46.698Z,84.15
2022-11-03T07:57:19.441Z,84.18
2022-11-03T07:59:49.335Z,84.25
2022-11-03T08:02:37.170Z,84.05
2022-11-03T08:05:04.496Z,83.85
2022-11-03T08:07:31.660Z,83.71
2022-11-03T08:09:58.681Z,83.90
2022-11-03T08:12:25.343Z,83.83
2022-11-03T08:14:51.771Z,83.73
2022-11-03T08:17:18.200Z,83.87
2022-11-03T08:19:44.607Z,83.80
2022-11-03T08:22:11.050Z,83.62
2022-11-03T08:24:37.475Z,83.58
2022-11-03T08:27:05.040Z,83.31
2022-11-03T08:29:31.675Z,83.48
2022-11-03T08:31:58.207Z,83.66
2022-11-03T08:34:24.627Z,83.39
2022-11-03T08:36:51.072Z,82.99
2022-11-03T08:39:17.957Z,83.01
2022-11-03T08:41:44.522Z,82.69
2022-11-03T08:44:10.954Z,82.22
2022-11-03T08:46:37.604Z,82.76
2022-11-03T08:49:04.043Z,82.51
2022-11-03T08:51:30.490Z,82.28
2022-11-03T08:53:56.931Z,82.48
2022-11-03T08:56:23.487Z,82.14
2022-11-03T08:58:50.350Z,82.01
2022-11-03T09:01:16.818Z,82.00
2022-11-03T09:03:43.531Z,82.00
2022-11-03T09:06:10.335Z,81.47
2022-11-03T09:11:23.462Z,81.67
2022-11-03T09:13:49.923Z,81.51
2022-11-03T09:16:17.156Z,81.49
2022-11-03T09:18:43.883Z,81.18
2022-11-03T09:21:10.341Z,81.18
2022-11-03T09:23:36.829Z,81.08
2022-11-03T09:26:03.258Z,81.24
2022-11-03T09:28:29.693Z,81.09
2022-11-03T09:30:56.101Z,80.94
2022-11-03T09:33:22.569Z,80.67
2022-11-03T09:35:49.032Z,80.65
2022-11-03T09:38:15.477Z,79.99
2022-11-03T09:40:41.920Z,80.14
2022-11-03T09:43:09.034Z,79.83
2022-11-03T09:45:35.740Z,79.88
2022-11-03T09:48:02.375Z,79.56
2022-11-03T09:50:28.941Z,79.39
2022-11-03T09:52:56.622Z,78.91
2022-11-03T09:55:27.354Z,78.59
2022-11-03T09:58:02.332Z,78.27
2022-11-03T10:00:28.831Z,77.89
2022-11-03T10:02:55.741Z,77.97
2022-11-03T10:05:28.344Z,77.71
2022-11-03T10:08:00.685Z,77.77
2022-11-03T10:10:27.764Z,77.60
2022-11-03T10:12:55.185Z,77.50
2022-11-03T10:15:24.586Z,77.20
2022-11-03T10:17:51.782Z,77.71
2022-11-03T10:20:21.068Z,76.88
2022-11-03T10:22:52.606Z,77.14
2022-11-03T10:25:44.912Z,77.26
2022-11-03T10:28:23.091Z,77.16
2022-11-03T10:31:11.380Z,76.98
2022-11-03T10:33:53.586Z,76.89
2022-11-03T10:36:20.205Z,75.93
2022-11-03T10:38:47.947Z,76.09
2022-11-03T10:41:18.124Z,76.11
2022-11-03T10:43:59.073Z,76.15
2022-11-03T10:49:18.327Z,76.22
2022-11-03T10:51:48.706Z,76.01
2022-11-03T10:54:17.549Z,75.48
2022-11-03T10:56:45.761Z,75.77
2022-11-03T10:59:24.543Z,75.96
2022-11-03T11:01:51.449Z,76.00
2022-11-03T11:04:20.186Z,75.31
2022-11-03T11:06:47.600Z,75.48
2022-11-03T11:09:23.489Z,75.03
2022-11-03T11:12:16.130Z,75.07
2022-11-03T11:14:59.893Z,74.61
2022-11-03T11:17:47.183Z,74.26
2022-11-03T11:20:29.016Z,74.32
2022-11-03T11:22:55.431Z,74.49
2022-11-03T11:26:00.334Z,74.75
2022-11-03T11:28:27.000Z,74.62
2022-11-03T11:30:53.423Z,73.45
2022-11-03T11:33:24.816Z,73.16
2022-11-03T11:35:54.031Z,73.58
2022-11-03T11:38:49.598Z,73.66
2022-11-03T11:41:16.041Z,72.61
2022-11-03T11:43:42.556Z,71.90
2022-11-03T11:46:38.397Z,71.94
2022-11-03T11:49:04.784Z,71.67
2022-11-03T11:51:34.435Z,72.55
2022-11-03T11:54:17.513Z,71.62
2022-11-03T11:56:47.289Z,71.60
2022-11-03T11:59:25.380Z,71.66
2022-11-03T12:01:55.581Z,71.42
2022-11-03T12:04:26.646Z,70.45
2022-11-03T12:06:53.479Z,70.57
2022-11-03T12:09:22.376Z,70.78
2022-11-03T12:11:56.425Z,70.89
2022-11-03T12:14:43.504Z,70.56
2022-11-03T12:17:18.903Z,70.51
2022-11-03T12:19:52.853Z,70.71
2022-11-03T12:22:25.954Z,70.50
2022-11-03T12:24:53.024Z,70.07
2022-11-03T12:27:25.246Z,70.55
2022-11-03T12:30:00.020Z,70.63
2022-11-03T12:32:33.803Z,69.77
2022-11-03T12:35:01.008Z,69.60
2022-11-03T12:37:27.485Z,68.49
2022-11-03T12:39:53.944Z,68.78
2022-11-03T12:42:21.047Z,68.29
2022-11-03T12:44:47.578Z,67.96
2022-11-03T12:47:14.003Z,67.86
2022-11-03T12:49:40.490Z,68.03
2022-11-03T12:52:08.594Z,68.29
2022-11-03T12:54:35.445Z,67.58
2022-11-03T12:57:02.062Z,66.89
2022-11-03T12:59:29.323Z,65.88
2022-11-03T13:01:55.916Z,66.28
2022-11-03T13:04:22.491Z,67.15
2022-11-03T13:06:48.967Z,66.89
2022-11-03T13:09:15.376Z,66.84
2022-11-03T13:12:00.386Z,66.78
2022-11-03T13:14:26.897Z,67.07
2022-11-03T13:16:53.535Z,67.43
2022-11-03T13:19:20.399Z,67.84
2022-11-03T13:21:46.844Z,67.04
2022-11-03T13:24:13.338Z,67.03
2022-11-03T13:26:39.735Z,66.88
2022-11-03T13:29:06.175Z,67.78
2022-11-03T13:31:32.699Z,67.26
2022-11-03T13:33:59.147Z,67.49
2022-11-03T13:36:25.683Z,68.07
2022-11-03T13:38:52.492Z,68.25
2022-11-03T13:41:18.909Z,68.83
2022-11-03T13:43:45.379Z,68.65
2022-11-03T13:46:12.907Z,68.33
2022-11-03T13:51:26.047Z,68.97
2022-11-03T13:59:25.865Z,68.52
2022-11-03T14:07:11.434Z,69.30
2022-11-03T14:09:38.041Z,69.09
2022-11-03T14:12:23.266Z,69.36
2022-11-03T14:14:49.695Z,68.92
2022-11-03T14:17:16.141Z,69.47
2022-11-03T14:19:47.257Z,69.39
2022-11-03T14:22:15.257Z,69.28
2022-11-03T14:24:41.820Z,68.79
2022-11-03T14:27:08.753Z,68.77
2022-11-03T14:29:35.305Z,68.73
2022-11-03T14:32:01.711Z,69.59
2022-11-03T14:34:28.281Z,69.23
2022-11-03T14:36:54.843Z,69.26
2022-11-03T14:39:21.343Z,69.54
2022-11-03T14:42:06.407Z,69.71
2022-11-03T14:44:38.756Z,70.31
2022-11-03T14:47:07.715Z,70.12
2022-11-03T14:49:35.271Z,70.29
2022-11-03T14:52:03.358Z,70.71
2022-11-03T14:54:31.003Z,71.22
2022-11-03T14:56:58.031Z,70.85
2022-11-03T14:59:24.972Z,70.89
2022-11-03T15:01:52.611Z,70.64
2022-11-03T15:04:19.477Z,70.78
2022-11-03T15:06:46.518Z,70.67
2022-11-03T15:09:14.768Z,71.03
2022-11-03T15:11:42.682Z,71.44
2022-11-03T15:14:10.049Z,72.28
2022-11-03T15:16:36.943Z,73.59
2022-11-03T15:19:04.763Z,73.96
2022-11-03T15:21:31.877Z,74.49
2022-11-03T15:26:45.096Z,75.01
2022-11-03T15:29:11.605Z,75.15
2022-11-03T15:31:39.247Z,75.52
2022-11-03T15:34:08.702Z,76.03
2022-11-03T15:36:35.490Z,76.01
2022-11-03T15:39:02.015Z,75.93
2022-11-03T15:41:28.493Z,76.09
2022-11-03T15:43:54.927Z,77.00
2022-11-03T15:46:21.376Z,76.80
2022-11-03T15:48:49.203Z,77.05
2022-11-03T15:51:16.035Z,77.16
2022-11-03T15:53:43.770Z,77.48
2022-11-03T15:56:10.296Z,77.55
2022-11-03T15:58:37.597Z,78.12
2022-11-03T16:01:05.012Z,78.17
2022-11-03T16:03:32.181Z,78.57
2022-11-03T16:05:59.184Z,78.78
2022-11-03T16:08:25.764Z,78.97
2022-11-03T16:10:57.635Z,79.27
2022-11-03T16:13:24.988Z,79.46
2022-11-03T16:15:51.787Z,79.61
2022-11-03T16:18:18.522Z,79.85
2022-11-03T16:20:45.060Z,80.18
2022-11-03T16:23:11.487Z,80.43
2022-11-03T16:25:38.007Z,80.25
2022-11-03T16:28:04.785Z,80.18
2022-11-03T16:30:31.756Z,80.32
2022-11-03T16:32:58.186Z,80.88
2022-11-03T16:35:24.784Z,80.96
2022-11-03T16:37:51.258Z,80.89
2022-11-03T16:40:19.994Z,81.46
2022-11-03T16:42:47.234Z,81.98
2022-11-03T16:45:22.314Z,82.02
2022-11-03T16:47:50.544Z,82.16
2022-11-03T16:50:18.527Z,82.92
2022-11-03T16:52:49.327Z,83.68
2022-11-03T16:55:17.738Z,83.96
2022-11-03T16:57:44.824Z,84.65
2022-11-03T17:00:16.997Z,86.08
2022-11-03T17:02:44.253Z,86.97
2022-11-03T17:05:11.618Z,88.62
2022-11-03T17:07:38.206Z,90.22
2022-11-03T17:10:06.176Z,91.84
2022-11-03T17:12:32.644Z,92.44
2022-11-03T17:14:59.144Z,93.23
2022-11-03T17:17:25.603Z,93.83
2022-11-03T17:19:52.049Z,94.41
2022-11-03T17:22:20.185Z,94.54
2022-11-03T17:24:46.669Z,95.29
2022-11-03T17:27:18.913Z,95.72
2022-11-03T17:29:51.672Z,95.88
2022-11-03T17:32:25.245Z,96.07
2022-11-03T17:34:57.156Z,96.72
2022-11-03T17:37:24.977Z,96.52
2022-11-03T17:39:52.304Z,96.70
2022-11-03T17:42:21.585Z,97.05
2022-11-03T17:44:50.244Z,97.15
2022-11-03T17:47:18.223Z,97.46
2022-11-03T17:49:45.621Z,97.93
2022-11-03T17:52:28.816Z,97.88
2022-11-03T17:54:59.893Z,97.92
2022-11-03T17:57:26.907Z,98.39
2022-11-03T17:59:55.797Z,98.45
2022-11-03T18:02:24.874Z,98.16
2022-11-03T18:04:57.621Z,98.10
2022-11-03T18:07:28.873Z,98.41
2022-11-03T18:09:58.361Z,98.61
2022-11-03T18:12:47.604Z,98.69
2022-11-03T18:15:19.045Z,98.56
2022-11-03T18:17:45.886Z,98.87
2022-11-03T18:20:22.001Z,98.96
2022-11-03T18:22:49.892Z,99.04
2022-11-03T18:25:18.988Z,99.21
2022-11-03T18:27:45.789Z,99.09
2022-11-03T18:30:16.936Z,99.38
2022-11-03T18:32:48.920Z,99.50
2022-11-03T18:35:22.656Z,99.35
2022-11-03T18:37:49.984Z,99.53
2022-11-03T18:40:16.694Z,99.68
2022-11-03T18:42:43.184Z,99.72
2022-11-03T18:45:15.475Z,99.80
2022-11-03T18:47:42.561Z,99.77
2022-11-03T18:50:14.316Z,99.78
2022-11-03T18:52:43.566Z,99.57
2022-11-03T18:55:14.386Z,99.56
2022-11-03T18:57:41.112Z,99.46
2022-11-03T19:00:17.402Z,99.65
2022-11-03T19:02:43.848Z,99.83
2022-11-03T19:05:14.063Z,99.93
2022-11-03T19:07:42.376Z,99.81
2022-11-03T19:10:13.002Z,100.00
2022-11-03T19:12:43.638Z,99.78
2022-11-03T19:15:18.480Z,99.72
2022-11-03T19:17:47.408Z,99.75
2022-11-03T19:20:15.356Z,99.85
2022-11-03T19:22:42.131Z,99.69
2022-11-03T19:25:08.972Z,99.54
2022-11-03T19:27:38.320Z,99.73
2022-11-03T19:30:05.945Z,99.76
2022-11-03T19:32:36.778Z,100.00
2022-11-03T19:35:16.940Z,100.00
2022-11-03T19:37:43.739Z,100.00
2022-11-03T19:40:16.861Z,100.00
2022-11-03T19:42:43.359Z,100.00
2022-11-03T19:45:18.784Z,100.00
2022-11-03T19:48:22.579Z,100.00
2022-11-03T19:50:37.871Z,100.00
2022-11-03T19:53:07.208Z,100.00
2022-11-03T19:55:40.339Z,100.00
2022-11-03T19:58:29.029Z,100.00
2022-11-03T20:00:56.474Z,100.00
2022-11-03T20:03:24.359Z,100.00
2022-11-03T20:05:56.482Z,100.00
2022-11-03T20:08:29.120Z,100.00
2022-11-03T20:10:56.173Z,100.00
2022-11-03T20:13:25.474Z,100.00
2022-11-03T20:15:58.968Z,100.00
2022-11-03T20:18:27.002Z,100.00
2022-11-03T20:20:53.549Z,100.00
2022-11-03T20:23:25.632Z,100.00
2022-11-03T20:25:52.713Z,100.00
2022-11-03T20:28:25.121Z,100.00
2022-11-03T20:30:52.565Z,100.00
2022-11-03T20:33:20.573Z,100.00
2022-11-03T20:35:48.574Z,100.00
2022-11-03T20:38:19.178Z,100.00
2022-11-03T20:40:47.185Z,100.00
2022-11-03T20:43:25.742Z,100.00
2022-11-03T20:45:53.684Z,100.00
2022-11-03T20:48:20.223Z,100.00
2022-11-03T20:50:47.067Z,100.00
2022-11-03T20:53:22.224Z,100.00
2022-11-03T20:55:48.812Z,100.00
2022-11-03T20:58:17.258Z,100.00
2022-11-03T21:00:45.812Z,100.00
2022-11-03T21:03:37.999Z,100.00
2022-11-03T21:06:05.533Z,100.00
2022-11-03T21:08:31.963Z,100.00
2022-11-03T21:11:18.477Z,100.00
2022-11-03T21:13:44.913Z,100.00
2022-11-03T21:16:29.954Z,100.00
2022-11-03T21:19:14.729Z,100.00
2022-11-03T21:21:41.264Z,100.00
2022-11-03T21:24:11.372Z,100.00
2022-11-03T21:26:40.043Z,100.00
2022-11-03T21:29:06.682Z,100.00
2022-11-03T21:31:33.091Z,100.00
2022-11-03T21:33:59.584Z,100.00
2022-11-03T21:36:26.047Z,100.00
2022-11-03T21:38:52.598Z,100.00
2022-11-03T21:41:37.669Z,100.00
2022-11-03T21:44:16.230Z,100.00
2022-11-03T21:46:44.142Z,100.00
2022-11-03T21:49:29.745Z,100.00
2022-11-03T21:51:57.521Z,100.00
2022-11-03T21:54:23.976Z,100.00
2022-11-03T21:56:50.435Z,100.00
2022-11-03T21:59:16.896Z,100.00
2022-11-03T22:01:43.449Z,100.00
2022-11-03T22:04:09.987Z,100.00
2022-11-03T22:06:36.459Z,100.00
2022-11-03T22:09:03.227Z,100.00
2022-11-03T22:11:29.673Z,100.00
2022-11-03T22:13:58.624Z,100.00
2022-11-03T22:16:38.280Z,100.00
2022-11-03T22:19:27.426Z,100.00
2022-11-03T22:22:12.800Z,100.00
2022-11-03T22:24:57.920Z,100.00
2022-11-03T22:27:25.876Z,100.00
2022-11-03T22:30:10.891Z,100.00
2022-11-03T22:32:37.445Z,100.00
2022-11-03T22:35:24.003Z,100.00
2022-11-03T22:38:02.339Z,100.00
2022-11-03T22:40:47.674Z,100.00
2022-11-03T22:43:32.496Z,100.00
2022-11-03T22:45:59.003Z,100.00
2022-11-03T22:48:26.868Z,100.00
2022-11-03T22:51:13.303Z,100.00
2022-11-03T22:53:59.006Z,100.00
2022-11-03T22:56:27.247Z,100.00
2022-11-03T22:58:54.181Z,100.00
2022-11-03T23:01:23.408Z,100.00
2022-11-03T23:03:50.304Z,100.00
2022-11-03T23:06:19.458Z,100.00
2022-11-03T23:08:47.422Z,100.00
2022-11-03T23:11:25.335Z,100.00
2022-11-03T23:14:00.284Z,100.00
2022-11-03T23:16:29.333Z,100.00
2022-11-03T23:19:15.815Z,100.00
2022-11-03T23:21:45.367Z,100.00
2022-11-03T23:24:30.871Z,100.00
2022-11-03T23:26:59.492Z,100.00
2022-11-03T23:29:26.701Z,100.00
2022-11-03T23:31:53.941Z,100.00
2022-11-03T23:34:20.699Z,100.00
2022-11-03T23:36:47.169Z,100.00
2022-11-03T23:39:15.368Z,100.00
2022-11-03T23:41:43.611Z,100.00
2022-11-03T23:44:11.576Z,100.00
2022-11-03T23:46:56.607Z,100.00
2022-11-03T23:49:23.303Z,100.00
2022-11-03T23:51:49.948Z,100.00
2022-11-03T23:54:16.499Z,100.00
2022-11-03T23:57:04.072Z,100.00
2022-11-03T23:59:32.155Z,100.00
